sensor_id;sensor_type;location;lat;lon;timestamp;pressure;altitude;pressure_sealevel;temperature;humidity
15880;BME280;61999;51.514;14.614;2023-03-21T00:01:50;100093.22;;;5.32;63.04
15880;BME280;61999;51.514;14.614;2023-03-21T00:04:19;100080.91;;;5.34;62.83
15880;BME280;61999;51.514;14.614;2023-03-21T00:06:47;100083.78;;;5.29;62.96
15880;BME280;61999;51.514;14.614;2023-03-21T00:09:15;100086.13;;;5.34;62.57
15880;BME280;61999;51.514;14.614;2023-03-21T00:11:43;100083.34;;;5.37;62.69
15880;BME280;61999;51.514;14.614;2023-03-21T00:14:12;100080.56;;;5.40;62.70
15880;BME280;61999;51.514;14.614;2023-03-21T00:16:44;100084.78;;;5.43;62.08
15880;BME280;61999;51.514;14.614;2023-03-21T00:19:17;100077.00;;;5.41;62.42
15880;BME280;61999;51.514;14.614;2023-03-21T00:21:46;100074.19;;;5.44;62.32
15880;BME280;61999;51.514;14.614;2023-03-21T00:24:34;100075.84;;;5.31;62.83
15880;BME280;61999;51.514;14.614;2023-03-21T00:27:03;100071.13;;;5.22;63.47
15880;BME280;61999;51.514;14.614;2023-03-21T00:29:51;100067.38;;;4.96;64.25
15880;BME280;61999;51.514;14.614;2023-03-21T00:32:20;100072.66;;;5.10;63.68
15880;BME280;61999;51.514;14.614;2023-03-21T00:34:50;100069.03;;;5.13;63.75
15880;BME280;61999;51.514;14.614;2023-03-21T00:37:38;100062.38;;;5.23;63.15
15880;BME280;61999;51.514;14.614;2023-03-21T00:40:08;100056.00;;;4.81;64.76
15880;BME280;61999;51.514;14.614;2023-03-21T00:42:48;100055.66;;;4.55;65.95
15880;BME280;61999;51.514;14.614;2023-03-21T00:45:16;100060.53;;;4.93;64.84
15880;BME280;61999;51.514;14.614;2023-03-21T00:47:45;100065.28;;;5.02;63.93
15880;BME280;61999;51.514;14.614;2023-03-21T00:50:14;100066.13;;;4.87;64.80
15880;BME280;61999;51.514;14.614;2023-03-21T00:52:42;100066.59;;;5.09;63.47
15880;BME280;61999;51.514;14.614;2023-03-21T00:55:13;100061.78;;;5.18;63.12
15880;BME280;61999;51.514;14.614;2023-03-21T00:57:42;100076.06;;;4.64;64.83
15880;BME280;61999;51.514;14.614;2023-03-21T01:00:16;100056.94;;;4.80;65.08
15880;BME280;61999;51.514;14.614;2023-03-21T01:02:44;100061.75;;;4.72;64.16
15880;BME280;61999;51.514;14.614;2023-03-21T01:05:31;100077.84;;;4.31;66.35
15880;BME280;61999;51.514;14.614;2023-03-21T01:08:19;100070.41;;;3.55;70.26
15880;BME280;61999;51.514;14.614;2023-03-21T01:10:55;100065.81;;;3.43;71.08
15880;BME280;61999;51.514;14.614;2023-03-21T01:13:24;100071.78;;;3.80;71.02
15880;BME280;61999;51.514;14.614;2023-03-21T01:15:55;100073.13;;;4.37;67.67
15880;BME280;61999;51.514;14.614;2023-03-21T01:18:26;100070.25;;;3.75;69.07
15880;BME280;61999;51.514;14.614;2023-03-21T01:20:58;100064.34;;;3.01;73.29
15880;BME280;61999;51.514;14.614;2023-03-21T01:23:28;100069.88;;;3.12;73.56
15880;BME280;61999;51.514;14.614;2023-03-21T01:25:56;100075.84;;;3.50;71.41
15880;BME280;61999;51.514;14.614;2023-03-21T01:28:26;100072.63;;;3.09;73.42
15880;BME280;61999;51.514;14.614;2023-03-21T01:30:55;100070.34;;;2.84;74.46
15880;BME280;61999;51.514;14.614;2023-03-21T01:33:23;100074.22;;;2.75;74.30
15880;BME280;61999;51.514;14.614;2023-03-21T01:35:51;100073.25;;;3.14;74.18
15880;BME280;61999;51.514;14.614;2023-03-21T01:38:33;100078.91;;;3.59;72.15
15880;BME280;61999;51.514;14.614;2023-03-21T01:41:01;100068.09;;;3.13;71.52
15880;BME280;61999;51.514;14.614;2023-03-21T01:43:35;100075.38;;;3.06;73.25
15880;BME280;61999;51.514;14.614;2023-03-21T01:46:37;100072.84;;;3.93;69.75
15880;BME280;61999;51.514;14.614;2023-03-21T01:49:21;100066.72;;;4.27;67.99
15880;BME280;61999;51.514;14.614;2023-03-21T01:51:56;100059.72;;;4.28;67.35
15880;BME280;61999;51.514;14.614;2023-03-21T01:54:37;100064.53;;;4.19;67.37
15880;BME280;61999;51.514;14.614;2023-03-21T01:57:12;100064.91;;;4.45;66.33
15880;BME280;61999;51.514;14.614;2023-03-21T01:59:46;100060.38;;;4.64;65.54
15880;BME280;61999;51.514;14.614;2023-03-21T02:02:20;100059.88;;;4.25;66.00
15880;BME280;61999;51.514;14.614;2023-03-21T02:04:49;100055.50;;;4.58;65.44
15880;BME280;61999;51.514;14.614;2023-03-21T02:07:26;100049.91;;;4.49;65.29
15880;BME280;61999;51.514;14.614;2023-03-21T02:09:58;100048.09;;;4.67;64.81
15880;BME280;61999;51.514;14.614;2023-03-21T02:12:26;100058.03;;;4.76;64.13
15880;BME280;61999;51.514;14.614;2023-03-21T02:14:56;100049.28;;;4.77;64.16
15880;BME280;61999;51.514;14.614;2023-03-21T02:17:32;100042.59;;;4.87;63.50
15880;BME280;61999;51.514;14.614;2023-03-21T02:20:28;100040.00;;;4.55;63.59
15880;BME280;61999;51.514;14.614;2023-03-21T02:23:39;100040.28;;;4.17;64.01
15880;BME280;61999;51.514;14.614;2023-03-21T02:26:47;100039.16;;;4.55;63.39
15880;BME280;61999;51.514;14.614;2023-03-21T02:30:01;100041.38;;;4.62;63.14
15880;BME280;61999;51.514;14.614;2023-03-21T02:32:51;100037.13;;;4.76;62.50
15880;BME280;61999;51.514;14.614;2023-03-21T02:35:46;100037.47;;;4.70;62.59
15880;BME280;61999;51.514;14.614;2023-03-21T02:38:29;100033.44;;;4.80;62.19
15880;BME280;61999;51.514;14.614;2023-03-21T02:41:05;100039.25;;;4.69;61.82
15880;BME280;61999;51.514;14.614;2023-03-21T02:43:51;100036.53;;;4.71;61.42
15880;BME280;61999;51.514;14.614;2023-03-21T02:46:29;100035.81;;;4.69;61.43
15880;BME280;61999;51.514;14.614;2023-03-21T02:49:15;100035.81;;;4.69;60.67
15880;BME280;61999;51.514;14.614;2023-03-21T02:51:48;100040.38;;;4.65;61.03
15880;BME280;61999;51.514;14.614;2023-03-21T02:54:22;100040.19;;;4.52;60.66
15880;BME280;61999;51.514;14.614;2023-03-21T02:57:05;100041.97;;;4.34;60.47
15880;BME280;61999;51.514;14.614;2023-03-21T02:59:35;100052.31;;;4.36;60.82
15880;BME280;61999;51.514;14.614;2023-03-21T03:02:15;100043.31;;;4.26;60.50
15880;BME280;61999;51.514;14.614;2023-03-21T03:04:45;100035.25;;;4.46;60.17
15880;BME280;61999;51.514;14.614;2023-03-21T03:07:34;100038.44;;;4.19;58.93
15880;BME280;61999;51.514;14.614;2023-03-21T03:10:27;100038.94;;;4.42;59.27
15880;BME280;61999;51.514;14.614;2023-03-21T03:13:13;100042.06;;;4.33;57.76
15880;BME280;61999;51.514;14.614;2023-03-21T03:15:58;100044.75;;;4.47;58.32
15880;BME280;61999;51.514;14.614;2023-03-21T03:18:41;100050.69;;;4.17;56.75
15880;BME280;61999;51.514;14.614;2023-03-21T03:21:19;100051.75;;;4.31;58.04
15880;BME280;61999;51.514;14.614;2023-03-21T03:23:56;100054.78;;;4.39;57.36
15880;BME280;61999;51.514;14.614;2023-03-21T03:26:33;100055.09;;;4.33;57.29
15880;BME280;61999;51.514;14.614;2023-03-21T03:29:06;100052.94;;;4.41;57.59
15880;BME280;61999;51.514;14.614;2023-03-21T03:31:41;100044.44;;;4.37;56.66
15880;BME280;61999;51.514;14.614;2023-03-21T03:34:16;100052.75;;;4.44;56.73
15880;BME280;61999;51.514;14.614;2023-03-21T03:36:52;100046.06;;;4.56;56.97
15880;BME280;61999;51.514;14.614;2023-03-21T03:39:28;100044.59;;;4.50;56.92
15880;BME280;61999;51.514;14.614;2023-03-21T03:42:06;100056.16;;;4.62;56.42
15880;BME280;61999;51.514;14.614;2023-03-21T03:44:53;100055.16;;;4.64;57.01
15880;BME280;61999;51.514;14.614;2023-03-21T03:47:28;100047.75;;;4.73;56.85
15880;BME280;61999;51.514;14.614;2023-03-21T03:50:12;100054.81;;;4.71;57.14
15880;BME280;61999;51.514;14.614;2023-03-21T03:52:46;100048.53;;;4.75;57.10
15880;BME280;61999;51.514;14.614;2023-03-21T03:55:25;100044.97;;;4.76;56.90
15880;BME280;61999;51.514;14.614;2023-03-21T03:58:01;100050.97;;;4.78;57.16
15880;BME280;61999;51.514;14.614;2023-03-21T04:00:34;100047.25;;;4.82;57.13
15880;BME280;61999;51.514;14.614;2023-03-21T04:03:02;100049.69;;;4.85;57.20
15880;BME280;61999;51.514;14.614;2023-03-21T04:05:32;100053.06;;;4.87;56.82
15880;BME280;61999;51.514;14.614;2023-03-21T04:08:00;100047.75;;;4.89;57.17
15880;BME280;61999;51.514;14.614;2023-03-21T04:10:28;100043.53;;;4.86;56.91
15880;BME280;61999;51.514;14.614;2023-03-21T04:12:56;100044.31;;;4.88;56.69
15880;BME280;61999;51.514;14.614;2023-03-21T04:15:25;100041.69;;;4.88;56.74
15880;BME280;61999;51.514;14.614;2023-03-21T04:17:53;100053.06;;;4.87;56.92
15880;BME280;61999;51.514;14.614;2023-03-21T04:20:22;100049.78;;;4.83;56.89
15880;BME280;61999;51.514;14.614;2023-03-21T04:23:02;100045.56;;;4.81;56.80
15880;BME280;61999;51.514;14.614;2023-03-21T04:25:32;100041.00;;;4.84;57.17
15880;BME280;61999;51.514;14.614;2023-03-21T04:28:03;100049.59;;;4.86;57.39
15880;BME280;61999;51.514;14.614;2023-03-21T04:30:32;100048.66;;;4.87;57.07
15880;BME280;61999;51.514;14.614;2023-03-21T04:33:00;100045.22;;;4.87;56.98
15880;BME280;61999;51.514;14.614;2023-03-21T04:35:28;100043.72;;;4.83;57.58
15880;BME280;61999;51.514;14.614;2023-03-21T04:37:56;100045.75;;;4.78;57.05
15880;BME280;61999;51.514;14.614;2023-03-21T04:40:24;100052.81;;;4.76;57.39
15880;BME280;61999;51.514;14.614;2023-03-21T04:42:52;100044.22;;;4.74;57.20
15880;BME280;61999;51.514;14.614;2023-03-21T04:45:20;100049.47;;;4.74;57.18
15880;BME280;61999;51.514;14.614;2023-03-21T04:47:49;100034.09;;;4.68;57.16
15880;BME280;61999;51.514;14.614;2023-03-21T04:50:17;100042.69;;;4.70;57.38
15880;BME280;61999;51.514;14.614;2023-03-21T04:52:45;100044.13;;;4.75;57.58
15880;BME280;61999;51.514;14.614;2023-03-21T04:55:14;100041.44;;;4.77;57.55
15880;BME280;61999;51.514;14.614;2023-03-21T04:57:42;100043.81;;;4.66;57.89
15880;BME280;61999;51.514;14.614;2023-03-21T05:00:12;100046.41;;;4.66;57.80
15880;BME280;61999;51.514;14.614;2023-03-21T05:02:40;100050.09;;;4.61;58.09
15880;BME280;61999;51.514;14.614;2023-03-21T05:05:10;100049.78;;;4.68;58.10
15880;BME280;61999;51.514;14.614;2023-03-21T05:07:40;100044.38;;;4.71;57.87
15880;BME280;61999;51.514;14.614;2023-03-21T05:10:10;100048.94;;;4.18;59.11
15880;BME280;61999;51.514;14.614;2023-03-21T05:12:39;100055.16;;;3.82;60.82
15880;BME280;61999;51.514;14.614;2023-03-21T05:15:08;100057.75;;;4.15;60.08
15880;BME280;61999;51.514;14.614;2023-03-21T05:17:36;100059.59;;;4.13;59.85
15880;BME280;61999;51.514;14.614;2023-03-21T05:20:05;100065.88;;;4.27;59.71
15880;BME280;61999;51.514;14.614;2023-03-21T05:22:36;100070.66;;;4.18;59.94
15880;BME280;61999;51.514;14.614;2023-03-21T05:25:08;100073.13;;;4.37;59.37
15880;BME280;61999;51.514;14.614;2023-03-21T05:27:38;100075.19;;;4.48;58.98
15880;BME280;61999;51.514;14.614;2023-03-21T05:30:14;100074.13;;;4.52;58.98
15880;BME280;61999;51.514;14.614;2023-03-21T05:32:43;100081.63;;;4.41;59.02
15880;BME280;61999;51.514;14.614;2023-03-21T05:35:11;100077.41;;;4.38;59.00
15880;BME280;61999;51.514;14.614;2023-03-21T05:37:40;100081.38;;;4.30;59.13
15880;BME280;61999;51.514;14.614;2023-03-21T05:40:10;100082.53;;;4.24;59.20
15880;BME280;61999;51.514;14.614;2023-03-21T05:42:38;100083.69;;;4.18;59.40
15880;BME280;61999;51.514;14.614;2023-03-21T05:45:06;100084.41;;;4.38;59.10
15880;BME280;61999;51.514;14.614;2023-03-21T05:47:34;100090.84;;;4.15;59.29
15880;BME280;61999;51.514;14.614;2023-03-21T05:50:03;100085.34;;;4.37;58.69
15880;BME280;61999;51.514;14.614;2023-03-21T05:52:32;100070.75;;;4.17;58.83
15880;BME280;61999;51.514;14.614;2023-03-21T05:55:02;100078.16;;;4.25;58.64
15880;BME280;61999;51.514;14.614;2023-03-21T05:57:30;100073.50;;;4.14;58.41
15880;BME280;61999;51.514;14.614;2023-03-21T06:00:02;100081.97;;;4.35;58.42
15880;BME280;61999;51.514;14.614;2023-03-21T06:02:30;100080.78;;;4.07;57.87
15880;BME280;61999;51.514;14.614;2023-03-21T06:04:58;100083.75;;;3.84;59.46
15880;BME280;61999;51.514;14.614;2023-03-21T06:07:26;100085.16;;;3.73;59.58
15880;BME280;61999;51.514;14.614;2023-03-21T06:09:54;100083.59;;;3.69;59.78
15880;BME280;61999;51.514;14.614;2023-03-21T06:12:25;100089.34;;;3.76;59.93
15880;BME280;61999;51.514;14.614;2023-03-21T06:14:52;100082.38;;;3.77;59.63
15880;BME280;61999;51.514;14.614;2023-03-21T06:17:20;100084.84;;;3.45;61.17
15880;BME280;61999;51.514;14.614;2023-03-21T06:19:48;100082.41;;;3.04;62.35
15880;BME280;61999;51.514;14.614;2023-03-21T06:22:16;100088.97;;;3.49;61.90
15880;BME280;61999;51.514;14.614;2023-03-21T06:24:44;100096.06;;;3.09;62.38
15880;BME280;61999;51.514;14.614;2023-03-21T06:27:12;100084.22;;;3.57;60.85
15880;BME280;61999;51.514;14.614;2023-03-21T06:29:41;100082.81;;;3.33;62.50
15880;BME280;61999;51.514;14.614;2023-03-21T06:32:11;100085.66;;;3.28;62.47
15880;BME280;61999;51.514;14.614;2023-03-21T06:34:39;100091.09;;;3.75;61.25
15880;BME280;61999;51.514;14.614;2023-03-21T06:37:07;100093.88;;;3.90;60.59
15880;BME280;61999;51.514;14.614;2023-03-21T06:39:35;100088.13;;;3.66;60.73
15880;BME280;61999;51.514;14.614;2023-03-21T06:42:03;100082.47;;;4.26;59.92
15880;BME280;61999;51.514;14.614;2023-03-21T06:44:31;100085.44;;;3.67;60.68
15880;BME280;61999;51.514;14.614;2023-03-21T06:47:01;100093.97;;;2.98;62.97
15880;BME280;61999;51.514;14.614;2023-03-21T06:49:32;100087.78;;;3.01;62.92
15880;BME280;61999;51.514;14.614;2023-03-21T06:52:00;100093.53;;;3.26;63.01
15880;BME280;61999;51.514;14.614;2023-03-21T06:54:28;100092.41;;;3.84;62.14
15880;BME280;61999;51.514;14.614;2023-03-21T06:56:56;100098.53;;;3.31;63.72
15880;BME280;61999;51.514;14.614;2023-03-21T06:59:24;100097.72;;;3.48;63.00
15880;BME280;61999;51.514;14.614;2023-03-21T07:01:52;100101.66;;;3.19;63.58
15880;BME280;61999;51.514;14.614;2023-03-21T07:04:21;100100.19;;;3.68;62.85
15880;BME280;61999;51.514;14.614;2023-03-21T07:06:49;100101.38;;;3.61;62.14
15880;BME280;61999;51.514;14.614;2023-03-21T07:09:17;100104.63;;;3.30;63.68
15880;BME280;61999;51.514;14.614;2023-03-21T07:11:50;100101.31;;;3.45;64.76
15880;BME280;61999;51.514;14.614;2023-03-21T07:14:19;100100.69;;;3.40;65.39
15880;BME280;61999;51.514;14.614;2023-03-21T07:16:48;100109.50;;;3.90;62.68
15880;BME280;61999;51.514;14.614;2023-03-21T07:19:16;100106.19;;;3.34;63.53
15880;BME280;61999;51.514;14.614;2023-03-21T07:21:45;100102.69;;;3.70;63.03
15880;BME280;61999;51.514;14.614;2023-03-21T07:24:13;100101.94;;;2.95;63.08
15880;BME280;61999;51.514;14.614;2023-03-21T07:26:41;100112.81;;;2.07;67.02
15880;BME280;61999;51.514;14.614;2023-03-21T07:29:09;100113.59;;;1.67;69.85
15880;BME280;61999;51.514;14.614;2023-03-21T07:31:37;100114.69;;;2.04;68.31
15880;BME280;61999;51.514;14.614;2023-03-21T07:34:05;100111.63;;;1.73;71.64
15880;BME280;61999;51.514;14.614;2023-03-21T07:36:33;100118.47;;;1.97;71.06
15880;BME280;61999;51.514;14.614;2023-03-21T07:39:04;100124.28;;;1.39;73.93
15880;BME280;61999;51.514;14.614;2023-03-21T07:41:33;100123.13;;;1.68;72.73
15880;BME280;61999;51.514;14.614;2023-03-21T07:44:01;100124.84;;;1.25;74.51
15880;BME280;61999;51.514;14.614;2023-03-21T07:46:29;100126.81;;;0.96;75.88
15880;BME280;61999;51.514;14.614;2023-03-21T07:48:57;100124.06;;;1.23;76.15
15880;BME280;61999;51.514;14.614;2023-03-21T07:51:25;100129.59;;;1.14;77.03
15880;BME280;61999;51.514;14.614;2023-03-21T07:53:53;100123.69;;;1.97;75.17
15880;BME280;61999;51.514;14.614;2023-03-21T07:56:22;100127.09;;;1.77;74.86
15880;BME280;61999;51.514;14.614;2023-03-21T07:58:50;100123.34;;;2.25;71.97
15880;BME280;61999;51.514;14.614;2023-03-21T08:01:18;100125.81;;;2.07;72.95
15880;BME280;61999;51.514;14.614;2023-03-21T08:03:46;100121.63;;;2.63;70.52
15880;BME280;61999;51.514;14.614;2023-03-21T08:06:14;100122.63;;;2.21;71.31
15880;BME280;61999;51.514;14.614;2023-03-21T08:08:41;100123.56;;;2.00;73.13
15880;BME280;61999;51.514;14.614;2023-03-21T08:11:11;100117.63;;;2.94;69.85
15880;BME280;61999;51.514;14.614;2023-03-21T08:13:40;100122.19;;;2.30;71.03
15880;BME280;61999;51.514;14.614;2023-03-21T08:16:08;100122.72;;;1.77;73.35
15880;BME280;61999;51.514;14.614;2023-03-21T08:18:36;100123.69;;;1.32;74.76
15880;BME280;61999;51.514;14.614;2023-03-21T08:21:05;100127.66;;;1.63;75.03
15880;BME280;61999;51.514;14.614;2023-03-21T08:23:35;100119.81;;;1.85;73.48
15880;BME280;61999;51.514;14.614;2023-03-21T08:26:03;100130.16;;;1.64;74.28
15880;BME280;61999;51.514;14.614;2023-03-21T08:28:31;100130.97;;;1.00;76.29
15880;BME280;61999;51.514;14.614;2023-03-21T08:31:06;100124.47;;;1.34;76.29
15880;BME280;61999;51.514;14.614;2023-03-21T08:33:34;100123.94;;;1.90;74.37
15880;BME280;61999;51.514;14.614;2023-03-21T08:36:04;100123.25;;;2.84;71.46
15880;BME280;61999;51.514;14.614;2023-03-21T08:38:32;100140.91;;;1.77;72.45
15880;BME280;61999;51.514;14.614;2023-03-21T08:41:01;100129.44;;;2.63;70.30
15880;BME280;61999;51.514;14.614;2023-03-21T08:43:29;100123.53;;;2.78;68.43
15880;BME280;61999;51.514;14.614;2023-03-21T08:45:57;100128.28;;;3.79;66.14
15880;BME280;61999;51.514;14.614;2023-03-21T08:48:26;100122.94;;;2.53;66.64
15880;BME280;61999;51.514;14.614;2023-03-21T08:50:54;100125.69;;;2.88;67.75
15880;BME280;61999;51.514;14.614;2023-03-21T08:53:22;100130.97;;;2.67;68.70
15880;BME280;61999;51.514;14.614;2023-03-21T08:55:50;100124.13;;;3.21;67.10
15880;BME280;61999;51.514;14.614;2023-03-21T08:58:17;100122.88;;;3.84;65.18
15880;BME280;61999;51.514;14.614;2023-03-21T09:00:46;100122.13;;;2.71;66.31
15880;BME280;61999;51.514;14.614;2023-03-21T09:03:14;100124.19;;;3.39;65.61
15880;BME280;61999;51.514;14.614;2023-03-21T09:05:43;100127.38;;;3.63;63.98
15880;BME280;61999;51.514;14.614;2023-03-21T09:08:11;100115.50;;;3.02;64.73
15880;BME280;61999;51.514;14.614;2023-03-21T09:10:40;100123.06;;;2.31;68.19
15880;BME280;61999;51.514;14.614;2023-03-21T09:13:07;100127.78;;;1.80;70.01
15880;BME280;61999;51.514;14.614;2023-03-21T09:15:35;100126.78;;;1.42;72.40
15880;BME280;61999;51.514;14.614;2023-03-21T09:18:03;100128.88;;;2.17;71.32
15880;BME280;61999;51.514;14.614;2023-03-21T09:20:45;100126.19;;;2.96;67.41
15880;BME280;61999;51.514;14.614;2023-03-21T09:23:14;100129.72;;;3.14;67.14
15880;BME280;61999;51.514;14.614;2023-03-21T09:25:44;100131.00;;;2.07;71.44
15880;BME280;61999;51.514;14.614;2023-03-21T09:28:13;100124.47;;;2.19;72.52
15880;BME280;61999;51.514;14.614;2023-03-21T09:30:42;100122.19;;;2.51;72.06
15880;BME280;61999;51.514;14.614;2023-03-21T09:33:10;100130.66;;;2.35;69.80
15880;BME280;61999;51.514;14.614;2023-03-21T09:35:38;100131.56;;;2.93;68.60
15880;BME280;61999;51.514;14.614;2023-03-21T09:38:08;100131.13;;;3.02;67.60
15880;BME280;61999;51.514;14.614;2023-03-21T09:40:55;100124.91;;;4.12;65.67
15880;BME280;61999;51.514;14.614;2023-03-21T09:43:40;100131.06;;;4.61;62.94
15880;BME280;61999;51.514;14.614;2023-03-21T09:46:22;100113.97;;;5.35;59.70
15880;BME280;61999;51.514;14.614;2023-03-21T09:48:57;100112.47;;;5.15;59.01
15880;BME280;61999;51.514;14.614;2023-03-21T09:51:32;100119.97;;;5.05;56.59
15880;BME280;61999;51.514;14.614;2023-03-21T09:54:12;100125.63;;;3.98;61.01
15880;BME280;61999;51.514;14.614;2023-03-21T09:56:44;100120.63;;;3.93;60.65
15880;BME280;61999;51.514;14.614;2023-03-21T09:59:21;100133.25;;;3.32;61.86
15880;BME280;61999;51.514;14.614;2023-03-21T10:01:52;100119.59;;;3.26;63.52
15880;BME280;61999;51.514;14.614;2023-03-21T10:04:21;100125.31;;;3.69;63.22
15880;BME280;61999;51.514;14.614;2023-03-21T10:06:57;100119.31;;;4.19;61.20
15880;BME280;61999;51.514;14.614;2023-03-21T10:09:30;100128.88;;;4.54;59.90
15880;BME280;61999;51.514;14.614;2023-03-21T10:12:04;100128.34;;;4.30;59.30
15880;BME280;61999;51.514;14.614;2023-03-21T10:14:39;100122.06;;;3.47;61.42
15880;BME280;61999;51.514;14.614;2023-03-21T10:17:22;100132.03;;;3.56;61.03
15880;BME280;61999;51.514;14.614;2023-03-21T10:20:00;100121.22;;;4.16;61.13
15880;BME280;61999;51.514;14.614;2023-03-21T10:22:38;100122.34;;;3.77;62.11
15880;BME280;61999;51.514;14.614;2023-03-21T10:25:12;100122.72;;;4.55;60.82
15880;BME280;61999;51.514;14.614;2023-03-21T10:27:42;100135.72;;;4.22;59.34
15880;BME280;61999;51.514;14.614;2023-03-21T10:30:35;100120.38;;;4.82;59.21
15880;BME280;61999;51.514;14.614;2023-03-21T10:33:10;100127.91;;;4.88;57.80
15880;BME280;61999;51.514;14.614;2023-03-21T10:35:44;100121.16;;;4.17;59.78
15880;BME280;61999;51.514;14.614;2023-03-21T10:38:18;100122.53;;;4.07;60.64
15880;BME280;61999;51.514;14.614;2023-03-21T10:40:49;100113.78;;;4.59;60.54
15880;BME280;61999;51.514;14.614;2023-03-21T10:43:32;100125.59;;;4.15;60.89
15880;BME280;61999;51.514;14.614;2023-03-21T10:46:11;100122.06;;;3.99;62.57
15880;BME280;61999;51.514;14.614;2023-03-21T10:48:43;100123.16;;;3.95;62.58
15880;BME280;61999;51.514;14.614;2023-03-21T10:51:18;100118.88;;;4.78;60.13
15880;BME280;61999;51.514;14.614;2023-03-21T10:53:52;100112.56;;;5.60;57.44
15880;BME280;61999;51.514;14.614;2023-03-21T10:56:26;100110.09;;;6.03;56.49
15880;BME280;61999;51.514;14.614;2023-03-21T10:58:58;100118.69;;;4.14;60.61
15880;BME280;61999;51.514;14.614;2023-03-21T11:01:34;100112.22;;;4.22;63.85
15880;BME280;61999;51.514;14.614;2023-03-21T11:04:08;100106.88;;;5.21;60.13
15880;BME280;61999;51.514;14.614;2023-03-21T11:06:42;100106.28;;;5.78;57.89
15880;BME280;61999;51.514;14.614;2023-03-21T11:09:15;100092.06;;;5.82;57.54
15880;BME280;61999;51.514;14.614;2023-03-21T11:11:52;100101.09;;;5.00;58.58
15880;BME280;61999;51.514;14.614;2023-03-21T11:14:37;100103.84;;;5.75;57.55
15880;BME280;61999;51.514;14.614;2023-03-21T11:17:24;100103.50;;;5.35;57.09
15880;BME280;61999;51.514;14.614;2023-03-21T11:19:59;100096.06;;;6.04;56.24
15880;BME280;61999;51.514;14.614;2023-03-21T11:22:36;100096.16;;;6.16;55.19
15880;BME280;61999;51.514;14.614;2023-03-21T11:25:09;100089.66;;;6.65;54.36
15880;BME280;61999;51.514;14.614;2023-03-21T11:27:47;100091.44;;;6.93;53.94
15880;BME280;61999;51.514;14.614;2023-03-21T11:30:22;100082.59;;;7.08;53.53
15880;BME280;61999;51.514;14.614;2023-03-21T11:32:53;100087.63;;;6.84;52.54
15880;BME280;61999;51.514;14.614;2023-03-21T11:35:27;100083.84;;;7.03;52.65
15880;BME280;61999;51.514;14.614;2023-03-21T11:37:58;100076.72;;;6.49;51.58
15880;BME280;61999;51.514;14.614;2023-03-21T11:40:28;100085.84;;;5.08;55.01
15880;BME280;61999;51.514;14.614;2023-03-21T11:43:00;100084.66;;;5.14;56.88
15880;BME280;61999;51.514;14.614;2023-03-21T11:45:31;100080.16;;;6.21;55.18
15880;BME280;61999;51.514;14.614;2023-03-21T11:48:06;100080.91;;;5.34;54.55
15880;BME280;61999;51.514;14.614;2023-03-21T11:50:42;100075.53;;;5.21;55.36
15880;BME280;61999;51.514;14.614;2023-03-21T11:53:27;100082.75;;;5.32;56.39
15880;BME280;61999;51.514;14.614;2023-03-21T11:56:20;100067.94;;;5.63;53.94
15880;BME280;61999;51.514;14.614;2023-03-21T11:59:23;100068.94;;;5.30;54.43
15880;BME280;61999;51.514;14.614;2023-03-21T12:02:13;100065.72;;;5.25;55.98
15880;BME280;61999;51.514;14.614;2023-03-21T12:04:52;100068.59;;;4.41;57.82
15880;BME280;61999;51.514;14.614;2023-03-21T12:07:34;100059.75;;;4.43;59.41
15880;BME280;61999;51.514;14.614;2023-03-21T12:10:37;100045.56;;;5.87;54.69
15880;BME280;61999;51.514;14.614;2023-03-21T12:13:32;100045.88;;;5.67;54.47
15880;BME280;61999;51.514;14.614;2023-03-21T12:16:19;100045.94;;;5.21;55.39
15880;BME280;61999;51.514;14.614;2023-03-21T12:19:10;100032.66;;;4.46;57.75
15880;BME280;61999;51.514;14.614;2023-03-21T12:21:52;100023.66;;;4.68;57.88
15880;BME280;61999;51.514;14.614;2023-03-21T12:24:32;100022.50;;;5.49;56.37
15880;BME280;61999;51.514;14.614;2023-03-21T12:27:15;100021.00;;;5.45;56.55
15880;BME280;61999;51.514;14.614;2023-03-21T12:30:00;100019.63;;;6.69;53.27
15880;BME280;61999;51.514;14.614;2023-03-21T12:32:52;100015.84;;;7.40;51.32
15880;BME280;61999;51.514;14.614;2023-03-21T12:35:37;100009.41;;;8.09;49.30
15880;BME280;61999;51.514;14.614;2023-03-21T12:38:15;100008.97;;;8.15;48.43
15880;BME280;61999;51.514;14.614;2023-03-21T12:41:04;100006.97;;;8.68;48.04
15880;BME280;61999;51.514;14.614;2023-03-21T12:43:43;100008.31;;;8.98;48.09
15880;BME280;61999;51.514;14.614;2023-03-21T12:46:20;99998.56;;;9.47;47.21
15880;BME280;61999;51.514;14.614;2023-03-21T12:48:56;99994.50;;;7.97;46.02
15880;BME280;61999;51.514;14.614;2023-03-21T12:51:29;99990.47;;;8.30;48.70
15880;BME280;61999;51.514;14.614;2023-03-21T12:54:06;99991.75;;;8.85;46.91
15880;BME280;61999;51.514;14.614;2023-03-21T12:56:46;99987.84;;;8.54;45.12
15880;BME280;61999;51.514;14.614;2023-03-21T12:59:26;99980.25;;;8.75;45.01
15880;BME280;61999;51.514;14.614;2023-03-21T13:02:09;99983.38;;;8.80;45.80
15880;BME280;61999;51.514;14.614;2023-03-21T13:04:51;99978.97;;;9.16;45.33
15880;BME280;61999;51.514;14.614;2023-03-21T13:07:28;99982.13;;;8.73;45.57
15880;BME280;61999;51.514;14.614;2023-03-21T13:09:58;99977.78;;;8.48;46.56
15880;BME280;61999;51.514;14.614;2023-03-21T13:12:47;99977.19;;;8.44;45.67
15880;BME280;61999;51.514;14.614;2023-03-21T13:15:43;99960.66;;;9.49;45.10
15880;BME280;61999;51.514;14.614;2023-03-21T13:18:30;99960.97;;;8.50;45.95
15880;BME280;61999;51.514;14.614;2023-03-21T13:21:09;99944.56;;;10.42;44.25
15880;BME280;61999;51.514;14.614;2023-03-21T13:23:40;99950.41;;;9.69;42.34
15880;BME280;61999;51.514;14.614;2023-03-21T13:26:32;99947.66;;;9.82;43.41